Anderson Dam, Idaho
Current Conditions -  °F | °C
As of 6:58 PM on Saturday 20 Dec 2014 (Local Time) from KMUO Reporting Station
Light Rain Light Rain  
Wind Chill: 35°   Ceiling: 3600
Heat Index: 41°   Visibility: 10mi
Dew Point: 39°   Wind: 10mph
Humidity: 92%   Direction: 100°E
Pressure: 29.96"   Gusts: NA
Location:  43.2609°N, 115.781°W
Report Text: KMUO 210158Z AUTO 10009KT 10SM -RA FEW019 SCT026 OVC036 05/04 A2996 RMK AO2 SLP158 P0013 T00510039
Loading
Personal Weather Stations






























Interactive Weather Map New forecast layout! Learn more

10-Day Weather Forecast

Advertisements
Track Severe Weather on mobile